createdAt,value
2023-03-01T00:04:33.892Z,63.07
2023-03-01T00:19:23.260Z,63.58
2023-03-01T00:34:13.493Z,63.74
2023-03-01T00:49:02.772Z,64.20
2023-03-01T01:18:55.219Z,65.24
2023-03-01T01:33:46.011Z,65.31
2023-03-01T01:48:43.625Z,65.99
2023-03-01T02:03:39.177Z,66.14
2023-03-01T02:18:30.523Z,66.72
2023-03-01T02:33:20.657Z,67.10
2023-03-01T02:48:10.904Z,67.30
2023-03-01T03:03:00.748Z,67.79
2023-03-01T03:17:51.359Z,68.08
2023-03-01T03:32:41.704Z,68.62
2023-03-01T03:47:31.168Z,69.14
2023-03-01T04:02:21.394Z,69.46
2023-03-01T04:17:10.124Z,70.14
2023-03-01T04:32:00.461Z,70.34
2023-03-01T04:46:49.871Z,70.37
2023-03-01T05:01:38.968Z,71.62
2023-03-01T05:16:27.537Z,72.21
2023-03-01T05:31:17.333Z,72.60
2023-03-01T05:46:07.688Z,72.52
2023-03-01T06:00:57.466Z,73.27
2023-03-01T06:15:47.048Z,72.99
2023-03-01T06:30:36.984Z,73.19
2023-03-01T06:45:26.301Z,73.26
2023-03-01T07:00:21.911Z,73.31
2023-03-01T07:15:08.070Z,72.58
2023-03-01T07:29:59.068Z,72.01
2023-03-01T07:44:50.432Z,70.80
2023-03-01T07:59:41.150Z,69.35
2023-03-01T08:14:31.224Z,66.94
2023-03-01T08:29:23.295Z,65.15
2023-03-01T08:44:15.334Z,64.13
2023-03-01T08:59:06.711Z,62.83
2023-03-01T09:13:56.658Z,61.89
2023-03-01T09:43:50.382Z,59.81
2023-03-01T09:58:54.487Z,58.78
2023-03-01T10:13:55.423Z,57.45
2023-03-01T10:29:05.362Z,56.16
2023-03-01T10:44:01.370Z,55.15
2023-03-01T10:59:03.992Z,53.89
2023-03-01T11:14:19.442Z,52.56
2023-03-01T11:29:00.684Z,52.14
2023-03-01T11:44:02.826Z,51.57
2023-03-01T11:59:04.095Z,50.26
2023-03-01T12:14:35.890Z,49.37
2023-03-01T12:29:38.633Z,48.45
2023-03-01T12:44:38.708Z,47.72
2023-03-01T12:59:35.950Z,47.02
2023-03-01T13:14:33.124Z,46.67
2023-03-01T13:29:27.574Z,45.79
2023-03-01T13:44:39.511Z,45.46
2023-03-01T13:59:35.360Z,44.82
2023-03-01T14:14:41.709Z,44.43
2023-03-01T14:29:36.583Z,44.37
2023-03-01T14:44:26.011Z,44.73
2023-03-01T14:59:15.541Z,45.50
2023-03-01T15:14:06.792Z,45.54
2023-03-01T15:28:58.849Z,45.39
2023-03-01T15:58:38.379Z,45.94
2023-03-01T16:13:29.464Z,46.40
2023-03-01T16:28:18.463Z,46.65
2023-03-01T16:43:08.084Z,46.91
2023-03-01T16:57:56.949Z,47.25
2023-03-01T17:12:51.713Z,47.84
2023-03-01T17:27:39.404Z,48.31
2023-03-01T17:42:31.501Z,48.96
2023-03-01T17:57:20.996Z,49.56
2023-03-01T18:12:15.649Z,50.21
2023-03-01T18:27:07.021Z,50.83
2023-03-01T18:41:57.338Z,51.51
2023-03-01T18:56:47.501Z,52.20
2023-03-01T19:11:37.853Z,52.56
2023-03-01T19:26:27.662Z,52.90
2023-03-01T19:41:17.560Z,53.15
2023-03-01T19:56:07.747Z,53.30
2023-03-01T20:11:01.741Z,53.40
2023-03-01T20:25:54.470Z,53.46
2023-03-01T20:55:43.284Z,54.42
2023-03-01T21:10:33.847Z,55.19
2023-03-01T21:25:21.363Z,55.76
2023-03-01T21:40:11.833Z,56.65
2023-03-01T21:55:02.234Z,57.29
2023-03-01T22:09:52.176Z,58.09
2023-03-01T22:24:41.771Z,58.79
2023-03-01T22:39:37.271Z,59.67
2023-03-01T22:54:22.532Z,60.51
2023-03-01T23:24:10.151Z,62.44
2023-03-01T23:39:00.780Z,63.30
2023-03-01T23:53:54.688Z,63.50
